Time;durP1;ratioP1;P1;durP2;ratioP2;P2;SDS_P1;SDS_P2;PMS_P1;PMS_P2;Temp;Humidity;BMP_temperature;BMP_pressure;BME280_temperature;BME280_humidity;BME280_pressure;Samples;Min_cycle;Max_cycle;Signal;HPM_P1;HPM_P2
2022/05/05 00:08:55;;;;;;;4.30;1.60;;;;;;;9.95;44.14;100834.77;709707;1182;115388;-80
2022/05/05 00:23:58;;;;;;;4.30;1.70;;;;;;;9.84;44.77;100835.59;709408;1181;114773;-79
2022/05/05 00:39:03;;;;;;;7.40;2.67;;;;;;;9.76;45.12;100833.55;709569;1182;114765;-79
2022/05/05 00:54:10;;;;;;;6.60;2.30;;;;;;;9.76;45.15;100830.11;709537;1182;115394;-78
2022/05/05 01:09:14;;;;;;;2.70;1.50;;;;;;;9.91;44.38;100828.95;709543;1181;115309;-77
2022/05/05 01:24:17;;;;;;;3.40;2.00;;;;;;;10.05;44.74;100825.25;709828;1184;115410;-79
2022/05/05 01:39:21;;;;;;;4.70;2.30;;;;;;;10.31;45.11;100828.47;709513;1180;115750;-79
2022/05/05 01:54:25;;;;;;;4.70;1.60;;;;;;;10.49;45.19;100828.00;710164;1181;114919;-80
2022/05/05 02:09:30;;;;;;;3.05;1.45;;;;;;;10.59;45.70;100822.88;709669;1181;114930;-80
2022/05/05 02:24:34;;;;;;;4.10;1.80;;;;;;;10.62;45.64;100812.98;709862;1180;114656;-78
2022/05/05 02:39:38;;;;;;;3.25;2.05;;;;;;;10.52;45.35;100803.31;712792;1180;115329;-78
2022/05/05 02:54:50;;;;;;;5.95;1.95;;;;;;;10.44;46.53;100777.72;709574;1180;114761;-79
2022/05/05 03:09:54;;;;;;;3.53;1.73;;;;;;;10.49;46.35;100786.88;710963;1181;115282;-85
2022/05/05 03:24:58;;;;;;;4.45;2.00;;;;;;;10.64;46.69;100765.63;710229;1180;115718;-81
2022/05/05 03:40:02;;;;;;;3.90;1.70;;;;;;;10.54;46.34;100777.80;712423;1182;114234;-86
2022/05/05 03:55:06;;;;;;;4.15;2.00;;;;;;;10.76;46.38;100800.53;712777;1182;115290;-82
2022/05/05 04:10:09;;;;;;;10.20;3.05;;;;;;;10.59;47.10;100805.33;710781;1183;114944;-82
2022/05/05 04:25:13;;;;;;;7.20;2.30;;;;;;;10.90;46.69;100817.77;710244;1182;115145;-82
2022/05/05 04:40:17;;;;;;;5.90;2.50;;;;;;;11.23;47.35;100818.59;710604;1180;114135;-82
2022/05/05 04:55:20;;;;;;;4.80;2.95;;;;;;;11.46;46.64;100799.14;710448;1180;114276;-82
2022/05/05 05:10:24;;;;;;;32.70;18.00;;;;;;;11.39;47.56;100819.02;710827;1180;115050;-82
2022/05/05 05:25:28;;;;;;;5.40;3.80;;;;;;;11.66;47.38;100826.36;710209;1180;115285;-87
2022/05/05 05:40:32;;;;;;;5.70;2.77;;;;;;;11.94;47.57;100805.64;710125;1180;115579;-85
2022/05/05 05:55:35;;;;;;;6.50;3.15;;;;;;;12.49;47.56;100830.78;710601;1182;114438;-87
2022/05/05 06:10:39;;;;;;;6.90;2.70;;;;;;;12.90;47.52;100823.64;710647;1181;115857;-83
2022/05/05 06:25:43;;;;;;;7.60;2.60;;;;;;;13.53;46.99;100832.95;716742;1180;115423;-83
2022/05/05 06:40:47;;;;;;;47.15;11.05;;;;;;;14.61;47.90;100822.00;714091;1180;114406;-87
2022/05/05 06:55:55;;;;;;;5.10;3.40;;;;;;;15.68;47.07;100830.88;715212;1184;116441;-72
2022/05/05 07:11:01;;;;;;;33.10;12.15;;;;;;;16.73;46.45;100820.08;710424;1182;115798;-72
2022/05/05 07:26:05;;;;;;;4.80;2.70;;;;;;;17.50;46.11;100820.81;710358;1181;116079;-73
2022/05/05 07:41:09;;;;;;;8.15;2.80;;;;;;;17.77;46.67;100825.73;710076;1183;115807;-74
2022/05/05 07:56:12;;;;;;;10.20;4.60;;;;;;;18.34;46.07;100805.32;710028;1174;114776;-74
2022/05/05 08:11:16;;;;;;;13.35;5.90;;;;;;;18.88;46.26;100812.47;722372;1180;115191;-73
2022/05/05 08:41:43;;;;;;;4.70;2.50;;;;;;;21.47;44.69;100813.53;724400;1181;115736;-76
2022/05/05 08:56:48;;;;;;;6.15;2.15;;;;;;;22.21;44.49;100809.45;712009;1183;115007;-75
2022/05/05 09:12:09;;;;;;;11.10;3.73;;;;;;;22.06;43.90;100791.71;709327;1181;115623;-75
2022/05/05 09:27:18;;;;;;;6.83;3.00;;;;;;;22.31;43.25;100798.41;713157;1180;116025;-77
2022/05/05 09:42:40;;;;;;;8.80;3.65;;;;;;;21.08;44.28;100795.17;711228;1180;115524;-76
2022/05/05 09:57:45;;;;;;;6.00;2.60;;;;;;;21.92;44.13;100785.50;709512;1184;115710;-77
2022/05/05 10:12:52;;;;;;;8.60;4.80;;;;;;;22.99;44.04;100784.98;710286;1180;115154;-76
2022/05/05 10:27:56;;;;;;;10.60;5.37;;;;;;;23.12;44.09;100780.66;710128;1180;115072;-76
2022/05/05 10:43:00;;;;;;;4.70;2.75;;;;;;;24.40;43.31;100774.78;718094;1180;116022;-75
2022/05/05 10:58:03;;;;;;;5.85;2.60;;;;;;;24.77;42.00;100758.05;709188;1184;114880;-77
2022/05/05 11:13:28;;;;;;;6.15;3.50;;;;;;;24.70;41.48;100742.00;710025;1180;114710;-73
2022/05/05 11:28:31;;;;;;;;;;;;;;;26.00;40.93;100733.27;710406;1182;115327;-83
2022/05/05 12:14:44;;;;;;;10.83;3.30;;;;;;;27.13;40.28;100735.33;710332;1180;114300;-78
2022/05/05 12:29:49;;;;;;;10.70;3.80;;;;;;;27.18;39.71;100719.29;710512;1180;114635;-77
2022/05/05 12:44:54;;;;;;;4.85;3.10;;;;;;;26.64;39.23;100720.16;710490;1180;115035;-75
2022/05/05 13:00:04;;;;;;;4.10;3.10;;;;;;;27.40;39.45;100701.48;709828;1180;115150;-77
2022/05/05 13:15:28;;;;;;;5.70;2.60;;;;;;;26.85;39.54;100693.78;710010;1184;114427;-76
2022/05/05 13:30:31;;;;;;;3.65;2.55;;;;;;;26.53;39.04;100689.52;713583;1182;114578;-73
2022/05/05 13:45:42;;;;;;;4.20;2.05;;;;;;;26.92;39.39;100685.59;718484;1182;115955;-75
2022/05/05 14:00:46;;;;;;;8.35;2.30;;;;;;;26.99;39.00;100687.11;712799;1182;114430;-74
2022/05/05 14:15:50;;;;;;;6.07;3.37;;;;;;;28.38;38.24;100686.35;715359;1183;115118;-77
2022/05/05 14:30:55;;;;;;;9.95;3.35;;;;;;;28.09;39.51;100669.41;709881;1184;115210;-76
2022/05/05 14:46:01;;;;;;;8.33;2.93;;;;;;;27.84;38.64;100667.85;710748;1182;115964;-75
2022/05/05 15:01:06;;;;;;;6.20;3.40;;;;;;;27.68;39.04;100658.66;709970;1182;115738;-73
2022/05/05 15:16:10;;;;;;;4.95;3.00;;;;;;;28.22;39.07;100666.41;710011;1182;115011;-74
2022/05/05 15:31:14;;;;;;;7.70;3.30;;;;;;;27.24;40.00;100651.04;709549;1182;115870;-73
2022/05/05 15:46:19;;;;;;;7.10;3.05;;;;;;;27.21;40.04;100640.72;709962;1183;115755;-75
2022/05/05 16:01:25;;;;;;;5.20;3.58;;;;;;;26.92;39.79;100642.53;710104;1182;115113;-75
2022/05/05 16:16:30;;;;;;;6.95;3.35;;;;;;;26.43;39.95;100638.16;710291;1182;114515;-74
2022/05/05 16:31:33;;;;;;;6.10;3.53;;;;;;;25.55;40.07;100632.38;710066;1182;114880;-75
2022/05/05 16:46:38;;;;;;;4.80;3.15;;;;;;;25.12;40.70;100627.93;709857;1182;115151;-75
2022/05/05 17:01:45;;;;;;;11.80;5.90;;;;;;;24.61;41.96;100630.64;710106;1182;114388;-75
2022/05/05 17:16:49;;;;;;;7.93;4.37;;;;;;;23.40;44.17;100651.98;710142;1182;115826;-78
2022/05/05 17:31:53;;;;;;;76.20;38.80;;;;;;;22.32;46.25;100659.24;711750;1183;114379;-79
2022/05/05 18:02:23;;;;;;;298.73;176.50;;;;;;;21.54;49.20;100695.16;710225;1184;115776;-78
2022/05/05 18:17:28;;;;;;;22.20;10.70;;;;;;;20.26;52.12;100740.44;710917;1183;115191;-78
2022/05/05 18:32:38;;;;;;;18.85;9.10;;;;;;;19.49;54.63;100750.47;711055;1181;116199;-78
2022/05/05 18:47:43;;;;;;;18.65;8.55;;;;;;;18.60;57.54;100781.10;710515;1181;115617;-78
2022/05/05 19:02:48;;;;;;;16.70;8.50;;;;;;;17.94;60.05;100839.01;710805;1182;115345;-78
2022/05/05 19:17:54;;;;;;;13.65;8.30;;;;;;;17.21;62.84;100833.60;710301;1180;115346;-78
2022/05/05 19:32:58;;;;;;;22.63;11.00;;;;;;;16.50;65.86;100797.88;710661;1180;114743;-77
2022/05/05 19:48:07;;;;;;;16.10;9.50;;;;;;;16.58;64.32;100801.35;717584;1180;116172;-74
2022/05/05 20:03:11;;;;;;;10.95;6.90;;;;;;;16.30;65.69;100800.79;709996;1180;115375;-73
2022/05/05 20:18:22;;;;;;;11.30;7.70;;;;;;;16.27;66.34;100816.97;709824;1181;115867;-75
2022/05/05 20:33:25;;;;;;;11.07;8.50;;;;;;;16.08;68.51;100805.65;709959;1182;115895;-75
2022/05/05 20:48:30;;;;;;;15.00;8.30;;;;;;;16.04;68.92;100817.54;709515;1181;116021;-75
2022/05/05 21:03:38;;;;;;;11.20;8.20;;;;;;;16.36;69.29;100863.66;709669;1183;115837;-74
2022/05/05 21:18:42;;;;;;;12.30;7.90;;;;;;;16.49;68.80;100904.78;709459;1182;115269;-74
2022/05/05 21:33:46;;;;;;;10.60;7.70;;;;;;;15.79;73.56;100846.47;710024;1180;115883;-74
2022/05/05 21:48:49;;;;;;;15.50;8.20;;;;;;;15.19;79.80;100822.56;709408;1180;115764;-74
2022/05/05 22:03:54;;;;;;;10.80;7.05;;;;;;;15.18;80.36;100837.60;709667;1180;115051;-74
2022/05/05 22:18:57;;;;;;;9.90;7.40;;;;;;;15.42;78.93;100863.39;709327;1180;116123;-74
2022/05/05 22:34:01;;;;;;;12.67;7.23;;;;;;;15.29;78.96;100871.70;710003;1184;115876;-74
2022/05/05 23:04:28;;;;;;;12.87;8.23;;;;;;;14.95;83.34;100863.63;709929;1180;116384;-74
2022/05/05 23:19:34;;;;;;;12.58;8.95;;;;;;;14.96;83.92;100892.53;709692;1181;117896;-74
2022/05/05 23:50:00;;;;;;;15.90;10.65;;;;;;;14.67;86.89;100839.08;709663;1181;114487;-75
